Time;durP1;ratioP1;P1;durP2;ratioP2;P2;SDS_P1;SDS_P2;PMS_P1;PMS_P2;Temp;Humidity;BMP_temperature;BMP_pressure;BME280_temperature;BME280_humidity;BME280_pressure;Samples;Min_cycle;Max_cycle;Signal;HPM_P1;HPM_P2
2022/03/26 00:01:50;;;;;;;7.07;3.80;;;5.30;99.90;;;;;;4852493;29;20050;-70
2022/03/26 00:04:17;;;;;;;6.97;4.80;;;5.20;99.90;;;;;;4839728;29;20050;-70
2022/03/26 00:06:45;;;;;;;7.40;4.15;;;5.20;99.90;;;;;;4832499;29;20533;-70
2022/03/26 00:09:12;;;;;;;6.80;4.43;;;5.20;99.90;;;;;;4833830;29;20542;-70
2022/03/26 00:11:39;;;;;;;5.63;3.42;;;5.10;99.90;;;;;;4839822;29;20100;-70
2022/03/26 00:14:07;;;;;;;5.72;3.63;;;5.00;99.90;;;;;;4827833;29;20404;-71
2022/03/26 00:16:36;;;;;;;10.18;3.67;;;5.00;99.90;;;;;;4834699;29;20085;-70
2022/03/26 00:19:03;;;;;;;7.25;3.85;;;5.00;99.90;;;;;;4838714;29;20098;-71
2022/03/26 00:21:31;;;;;;;3.67;3.00;;;5.00;99.90;;;;;;4839571;29;20092;-69
2022/03/26 00:23:58;;;;;;;8.70;4.68;;;5.00;99.90;;;;;;4836988;29;20046;-70
2022/03/26 00:26:26;;;;;;;6.38;3.40;;;5.00;99.90;;;;;;4841892;29;20435;-69
2022/03/26 00:28:53;;;;;;;6.60;3.75;;;5.00;99.90;;;;;;4838825;29;20421;-71
2022/03/26 00:31:20;;;;;;;6.85;3.40;;;5.00;99.90;;;;;;4816021;29;20049;-70
2022/03/26 00:33:49;;;;;;;6.30;3.97;;;5.00;99.90;;;;;;4851955;29;20054;-69
2022/03/26 00:36:16;;;;;;;4.05;2.97;;;5.00;99.90;;;;;;4847965;29;20054;-70
2022/03/26 00:38:44;;;;;;;7.05;3.45;;;5.00;99.90;;;;;;4843302;29;20053;-70
2022/03/26 00:41:11;;;;;;;5.57;3.13;;;5.00;99.90;;;;;;4826477;29;20119;-69
2022/03/26 00:43:39;;;;;;;3.47;2.65;;;5.00;99.90;;;;;;4840967;29;20049;-69
2022/03/26 00:46:06;;;;;;;8.23;3.30;;;5.00;99.90;;;;;;4838190;29;20107;-69
2022/03/26 00:48:34;;;;;;;4.07;3.28;;;5.00;99.90;;;;;;4838494;29;20059;-70
2022/03/26 00:51:03;;;;;;;7.82;2.88;;;5.00;99.90;;;;;;4835469;29;20074;-71
2022/03/26 00:53:30;;;;;;;3.25;2.55;;;5.00;99.90;;;;;;4842977;29;20053;-70
2022/03/26 00:55:59;;;;;;;3.72;3.30;;;5.00;99.90;;;;;;4842630;29;20102;-70
2022/03/26 00:58:26;;;;;;;4.95;3.08;;;5.00;99.90;;;;;;4842943;29;20118;-74
2022/03/26 01:00:54;;;;;;;5.07;3.40;;;5.00;99.90;;;;;;4841811;29;20150;-74
2022/03/26 01:03:21;;;;;;;7.00;2.60;;;5.00;99.90;;;;;;4841467;29;20046;-73
2022/03/26 01:05:48;;;;;;;4.80;2.33;;;5.00;99.90;;;;;;4856701;29;20072;-74
2022/03/26 01:08:17;;;;;;;5.13;2.50;;;5.10;99.90;;;;;;4841771;29;20069;-74
2022/03/26 01:10:46;;;;;;;3.88;2.25;;;5.10;99.90;;;;;;4836243;29;20073;-74
2022/03/26 01:13:14;;;;;;;4.15;2.20;;;5.10;99.90;;;;;;4842077;29;20058;-74
2022/03/26 01:15:42;;;;;;;2.83;2.00;;;5.10;99.90;;;;;;4841028;29;20065;-73
2022/03/26 01:18:10;;;;;;;6.78;2.55;;;5.10;99.90;;;;;;4839321;29;20049;-73
2022/03/26 01:20:38;;;;;;;3.85;2.38;;;5.00;99.90;;;;;;4841339;29;20054;-74
2022/03/26 01:23:05;;;;;;;4.70;2.28;;;5.00;99.90;;;;;;4827537;29;20042;-73
2022/03/26 01:25:34;;;;;;;2.60;2.40;;;5.00;99.90;;;;;;4842251;29;20085;-74
2022/03/26 01:28:02;;;;;;;3.83;2.08;;;4.90;99.90;;;;;;4844600;29;20149;-74
2022/03/26 01:30:29;;;;;;;5.47;2.53;;;5.00;99.90;;;;;;4832702;29;20045;-74
2022/03/26 01:32:57;;;;;;;4.65;1.75;;;4.90;99.90;;;;;;4854732;29;20045;-74
2022/03/26 01:35:25;;;;;;;5.47;1.77;;;4.90;99.90;;;;;;4851382;29;20054;-74
2022/03/26 01:37:52;;;;;;;2.92;1.50;;;4.90;99.90;;;;;;4855158;29;20041;-75
2022/03/26 01:40:19;;;;;;;3.67;2.05;;;4.90;99.90;;;;;;4850436;29;20630;-74
2022/03/26 01:42:48;;;;;;;3.70;1.85;;;4.80;99.90;;;;;;4840583;29;20073;-75
2022/03/26 01:45:16;;;;;;;2.88;2.00;;;4.80;99.90;;;;;;4836662;29;20347;-75
2022/03/26 01:47:43;;;;;;;5.30;2.00;;;4.70;99.90;;;;;;4832569;29;20134;-74
2022/03/26 01:50:11;;;;;;;4.53;1.80;;;4.70;99.90;;;;;;4840710;29;20045;-74
2022/03/26 01:52:38;;;;;;;4.30;1.90;;;4.60;99.90;;;;;;4822337;29;20690;-74
2022/03/26 01:55:08;;;;;;;5.60;1.75;;;4.50;99.90;;;;;;4833346;29;20057;-75
2022/03/26 01:57:36;;;;;;;5.53;2.25;;;4.40;99.90;;;;;;4841983;29;20061;-75
2022/03/26 02:00:07;;;;;;;3.88;1.83;;;4.30;99.90;;;;;;4841712;29;20114;-74
2022/03/26 02:02:43;;;;;;;4.80;2.35;;;4.30;99.90;;;;;;4841925;29;20053;-74
2022/03/26 02:05:11;;;;;;;4.45;1.67;;;;;;;;;;4828891;29;20053;-74
2022/03/26 02:07:40;;;;;;;5.22;1.98;;;4.00;99.90;;;;;;4840079;29;20049;-74
2022/03/26 02:10:09;;;;;;;2.55;1.73;;;3.90;99.90;;;;;;4841452;29;20080;-74
2022/03/26 02:12:37;;;;;;;5.80;1.95;;;3.90;99.90;;;;;;4833659;29;20088;-74
2022/03/26 02:15:09;;;;;;;4.35;1.75;;;3.70;99.90;;;;;;4844700;29;20158;-74
2022/03/26 02:17:38;;;;;;;2.90;1.80;;;3.60;99.90;;;;;;4839351;29;20061;-74
2022/03/26 02:20:10;;;;;;;3.60;1.70;;;3.50;99.90;;;;;;4839356;29;20046;-73
2022/03/26 02:22:39;;;;;;;3.80;1.20;;;3.40;99.90;;;;;;4841027;29;20062;-74
2022/03/26 02:25:09;;;;;;;2.95;1.40;;;3.40;99.90;;;;;;4839172;29;20046;-74
2022/03/26 02:27:37;;;;;;;2.75;1.30;;;3.30;99.90;;;;;;4839981;29;20080;-73
2022/03/26 02:30:06;;;;;;;3.50;1.13;;;3.30;99.90;;;;;;4837559;29;20492;-73
2022/03/26 02:32:34;;;;;;;3.15;1.52;;;3.20;99.90;;;;;;4841081;29;20058;-74
2022/03/26 02:35:02;;;;;;;7.63;2.10;;;3.20;99.90;;;;;;4841314;29;20106;-74
2022/03/26 02:37:34;;;;;;;3.63;1.52;;;3.20;99.90;;;;;;4840162;29;20523;-74
2022/03/26 02:40:04;;;;;;;2.65;1.00;;;3.30;99.90;;;;;;4838699;29;20081;-76
2022/03/26 02:42:31;;;;;;;7.13;0.95;;;3.40;99.90;;;;;;4841532;29;20551;-74
2022/03/26 02:44:59;;;;;;;2.13;1.00;;;3.40;99.90;;;;;;4838541;29;20050;-74
2022/03/26 02:47:26;;;;;;;3.55;0.90;;;3.50;99.90;;;;;;4846783;29;20074;-74
2022/03/26 02:49:54;;;;;;;1.92;1.00;;;3.50;99.90;;;;;;4835850;29;20054;-73
2022/03/26 02:52:23;;;;;;;2.97;0.82;;;3.50;99.90;;;;;;4836838;29;20070;-73
2022/03/26 02:54:53;;;;;;;2.45;0.80;;;3.50;99.90;;;;;;4829668;29;20061;-74
2022/03/26 02:57:20;;;;;;;3.13;1.13;;;3.50;99.90;;;;;;4837540;29;20138;-74
2022/03/26 02:59:48;;;;;;;4.50;0.95;;;3.50;99.90;;;;;;4840703;29;20431;-74
2022/03/26 03:02:15;;;;;;;3.70;0.70;;;3.50;99.90;;;;;;4840318;29;20065;-74
2022/03/26 03:04:43;;;;;;;5.03;1.20;;;3.40;99.90;;;;;;4819650;29;20137;-74
2022/03/26 03:07:10;;;;;;;4.40;0.60;;;3.30;99.90;;;;;;4838853;29;20408;-74
2022/03/26 03:09:37;;;;;;;2.75;1.00;;;3.30;99.90;;;;;;4839511;29;20069;-74
2022/03/26 03:12:08;;;;;;;2.55;0.60;;;3.20;99.90;;;;;;4840667;29;20080;-74
2022/03/26 03:14:37;;;;;;;6.15;1.10;;;3.10;99.90;;;;;;4838767;29;20049;-74
2022/03/26 03:17:05;;;;;;;2.70;0.50;;;3.00;99.90;;;;;;4835087;29;20066;-74
2022/03/26 03:19:33;;;;;;;4.22;0.95;;;3.00;99.90;;;;;;4837686;29;20057;-74
2022/03/26 03:22:01;;;;;;;3.10;0.73;;;3.00;99.90;;;;;;4840037;29;20064;-75
2022/03/26 03:24:28;;;;;;;2.45;0.60;;;3.00;99.90;;;;;;4837536;29;20080;-74
2022/03/26 03:26:56;;;;;;;3.38;0.93;;;3.10;99.90;;;;;;4833855;29;20110;-74
2022/03/26 03:29:24;;;;;;;3.78;0.85;;;3.10;99.90;;;;;;4839852;29;20133;-74
2022/03/26 03:31:52;;;;;;;1.58;1.17;;;3.20;99.90;;;;;;4840344;29;20110;-74
2022/03/26 03:34:20;;;;;;;5.50;1.30;;;3.20;99.90;;;;;;4837677;29;20140;-74
2022/03/26 03:36:47;;;;;;;4.22;0.93;;;3.20;99.90;;;;;;4840601;29;20539;-74
2022/03/26 03:39:15;;;;;;;1.50;0.52;;;3.20;99.90;;;;;;4838476;29;20054;-73
2022/03/26 03:41:42;;;;;;;6.18;0.77;;;3.20;99.90;;;;;;4839340;29;20062;-75
2022/03/26 03:44:10;;;;;;;3.75;0.73;;;3.30;99.90;;;;;;4834696;29;20070;-74
2022/03/26 03:46:38;;;;;;;2.40;0.80;;;3.30;99.90;;;;;;4839893;29;20144;-75
2022/03/26 03:49:06;;;;;;;2.28;0.50;;;3.30;99.90;;;;;;4840814;29;20057;-74
2022/03/26 03:51:33;;;;;;;4.18;0.90;;;3.20;99.90;;;;;;4838662;29;20053;-74
2022/03/26 03:54:00;;;;;;;3.35;0.70;;;3.20;99.90;;;;;;4854031;29;20078;-74
2022/03/26 03:56:27;;;;;;;4.35;0.70;;;3.30;99.90;;;;;;4829869;29;20054;-74
2022/03/26 03:58:56;;;;;;;3.20;1.00;;;3.30;99.90;;;;;;4845755;29;20054;-74
2022/03/26 04:01:23;;;;;;;2.03;0.70;;;3.40;99.90;;;;;;4838141;29;20544;-74
2022/03/26 04:03:52;;;;;;;7.10;0.75;;;3.40;99.90;;;;;;4843924;29;20058;-74
2022/03/26 04:06:20;;;;;;;4.60;1.95;;;3.40;99.90;;;;;;4845178;29;20053;-74
2022/03/26 04:08:47;;;;;;;3.08;0.68;;;3.50;99.90;;;;;;4845375;29;20100;-74
2022/03/26 04:11:14;;;;;;;8.32;1.58;;;3.50;99.90;;;;;;4842298;29;20546;-74
2022/03/26 04:13:42;;;;;;;4.13;1.20;;;3.50;99.90;;;;;;4844143;29;20064;-74
2022/03/26 04:16:09;;;;;;;6.72;1.35;;;3.50;99.90;;;;;;4828498;29;20053;-74
2022/03/26 04:18:39;;;;;;;2.42;0.75;;;3.50;99.90;;;;;;4843049;29;20085;-73
2022/03/26 04:21:08;;;;;;;3.72;1.23;;;3.50;99.90;;;;;;4825119;29;20058;-75
2022/03/26 04:23:36;;;;;;;3.05;1.27;;;3.50;99.90;;;;;;4857475;29;20046;-74
2022/03/26 04:26:03;;;;;;;3.55;0.75;;;3.50;99.90;;;;;;4832941;29;20054;-76
2022/03/26 04:28:31;;;;;;;5.63;1.25;;;3.60;99.90;;;;;;4838534;29;20103;-74
2022/03/26 04:30:58;;;;;;;2.83;0.88;;;3.60;99.90;;;;;;4820437;29;20093;-74
2022/03/26 04:33:26;;;;;;;1.60;0.60;;;3.70;99.90;;;;;;4841338;29;20150;-74
2022/03/26 04:35:53;;;;;;;2.53;0.50;;;3.80;99.90;;;;;;4856068;29;20057;-74
2022/03/26 04:38:22;;;;;;;1.85;0.70;;;3.80;99.90;;;;;;4839679;29;20136;-74
2022/03/26 04:40:50;;;;;;;8.60;1.10;;;3.80;99.90;;;;;;4845479;29;20144;-75
2022/03/26 04:43:18;;;;;;;4.22;1.20;;;3.80;99.90;;;;;;4845291;29;20050;-74
2022/03/26 04:45:45;;;;;;;5.07;1.08;;;3.80;99.90;;;;;;4838777;29;20050;-74
2022/03/26 04:48:13;;;;;;;3.00;1.23;;;3.80;99.90;;;;;;4839381;29;20462;-73
2022/03/26 04:50:40;;;;;;;7.18;1.05;;;3.90;99.90;;;;;;4845509;29;20054;-75
2022/03/26 04:53:09;;;;;;;5.50;1.33;;;3.80;99.90;;;;;;4844751;29;20061;-74
2022/03/26 04:55:37;;;;;;;3.60;0.90;;;3.80;99.90;;;;;;4840736;29;20077;-74
2022/03/26 04:58:08;;;;;;;3.70;0.73;;;3.80;99.90;;;;;;4844245;29;20061;-74
2022/03/26 05:00:35;;;;;;;3.33;0.80;;;3.80;99.90;;;;;;4844623;29;20496;-74
2022/03/26 05:03:02;;;;;;;2.80;0.60;;;3.80;99.90;;;;;;4842590;29;20064;-76
2022/03/26 05:05:30;;;;;;;2.33;0.77;;;3.80;99.90;;;;;;4842529;29;20503;-74
2022/03/26 05:07:59;;;;;;;6.32;0.90;;;3.70;99.90;;;;;;4839598;29;20053;-76
2022/03/26 05:10:29;;;;;;;4.50;1.13;;;3.70;99.90;;;;;;4842601;29;20053;-74
2022/03/26 05:12:59;;;;;;;7.57;1.30;;;3.60;99.90;;;;;;4844012;29;20054;-72
2022/03/26 05:15:28;;;;;;;3.05;1.40;;;3.60;99.90;;;;;;4831220;29;20287;-73
2022/03/26 05:17:57;;;;;;;3.42;1.33;;;3.50;99.90;;;;;;4842228;29;20617;-74
2022/03/26 05:20:26;;;;;;;3.83;0.80;;;3.50;99.90;;;;;;4841516;29;20049;-74
2022/03/26 05:22:54;;;;;;;3.58;1.10;;;3.60;99.90;;;;;;4840625;29;20057;-69
2022/03/26 05:25:22;;;;;;;3.00;0.88;;;3.60;99.90;;;;;;4841523;29;20045;-72
2022/03/26 05:27:52;;;;;;;3.28;0.80;;;3.50;99.90;;;;;;4842009;29;20088;-68
2022/03/26 05:30:26;;;;;;;6.82;1.00;;;3.50;99.90;;;;;;4827143;29;20416;-68
2022/03/26 05:32:59;;;;;;;3.83;0.68;;;3.40;99.90;;;;;;4836953;29;20564;-70
2022/03/26 05:35:28;;;;;;;9.82;1.33;;;3.50;99.90;;;;;;4840979;29;20046;-69
2022/03/26 05:37:57;;;;;;;1.90;0.70;;;3.60;99.90;;;;;;4842353;29;20054;-68
2022/03/26 05:40:25;;;;;;;5.78;1.10;;;3.70;99.90;;;;;;4838270;29;20144;-69
2022/03/26 05:42:53;;;;;;;5.10;0.75;;;3.70;99.90;;;;;;4832386;29;20064;-74
2022/03/26 05:45:22;;;;;;;3.17;0.60;;;3.90;99.90;;;;;;4829157;29;20054;-68
2022/03/26 05:47:51;;;;;;;3.97;0.93;;;3.90;99.90;;;;;;4835657;29;20152;-69
2022/03/26 05:50:19;;;;;;;9.75;1.77;;;3.90;99.90;;;;;;4857137;29;20123;-70
2022/03/26 05:52:46;;;;;;;14.30;1.88;;;4.00;99.90;;;;;;4824656;29;21108;-69
2022/03/26 05:55:16;;;;;;;5.45;1.08;;;4.00;99.90;;;;;;4837674;29;20578;-74
2022/03/26 05:57:44;;;;;;;9.45;1.23;;;4.00;99.90;;;;;;4822404;29;20058;-74
2022/03/26 06:00:15;;;;;;;5.05;0.90;;;4.10;99.90;;;;;;4846451;29;20213;-75
2022/03/26 06:02:44;;;;;;;4.47;1.10;;;4.20;99.90;;;;;;4827470;29;20054;-74
2022/03/26 06:05:12;;;;;;;6.20;1.13;;;4.30;99.90;;;;;;4842719;29;20058;-74
2022/03/26 06:07:39;;;;;;;8.23;1.35;;;4.40;99.90;;;;;;4839263;29;20069;-75
2022/03/26 06:10:08;;;;;;;6.00;1.10;;;4.60;99.90;;;;;;4824128;29;20050;-70
2022/03/26 06:12:36;;;;;;;7.05;1.30;;;4.60;99.90;;;;;;4838002;29;20499;-68
2022/03/26 06:15:04;;;;;;;7.95;1.10;;;4.60;99.90;;;;;;4839619;29;20110;-71
2022/03/26 06:17:32;;;;;;;3.92;1.10;;;4.50;99.90;;;;;;4841062;29;20491;-69
2022/03/26 06:20:00;;;;;;;4.65;1.50;;;4.20;99.90;;;;;;4839828;29;20086;-69
2022/03/26 06:22:28;;;;;;;3.40;0.98;;;4.10;99.90;;;;;;4832562;29;20079;-70
2022/03/26 06:24:56;;;;;;;7.00;1.23;;;4.00;99.90;;;;;;4848961;29;20077;-76
2022/03/26 06:27:23;;;;;;;6.18;1.17;;;3.80;99.90;;;;;;4845167;29;20053;-70
2022/03/26 06:29:51;;;;;;;5.82;0.90;;;3.80;99.90;;;;;;4836694;29;20058;-74
2022/03/26 06:32:19;;;;;;;9.18;2.00;;;3.70;99.90;;;;;;4822386;29;20141;-75
2022/03/26 06:34:46;;;;;;;9.43;1.10;;;3.60;99.90;;;;;;4825447;29;20069;-76
2022/03/26 06:37:16;;;;;;;9.68;1.40;;;3.60;99.90;;;;;;4820869;29;20046;-76
2022/03/26 06:39:43;;;;;;;5.80;0.98;;;3.40;99.90;;;;;;4829976;29;20062;-77
2022/03/26 06:42:11;;;;;;;5.85;1.52;;;3.30;99.90;;;;;;4822325;29;20145;-76
2022/03/26 06:44:44;;;;;;;5.10;1.10;;;3.20;99.90;;;;;;4827215;29;20054;-76
2022/03/26 06:47:13;;;;;;;6.38;1.55;;;3.10;99.90;;;;;;4842766;29;20084;-70
2022/03/26 06:49:42;;;;;;;7.35;1.88;;;3.20;99.90;;;;;;4846922;29;20056;-75
2022/03/26 06:52:13;;;;;;;4.90;1.83;;;3.20;99.90;;;;;;4845842;29;20596;-73
2022/03/26 06:54:43;;;;;;;7.32;1.55;;;3.10;99.90;;;;;;4820686;29;20442;-74
2022/03/26 06:57:11;;;;;;;6.15;1.50;;;3.10;99.90;;;;;;4829180;29;20507;-70
2022/03/26 06:59:39;;;;;;;5.65;1.25;;;3.00;99.90;;;;;;4839416;29;20058;-70
2022/03/26 07:02:07;;;;;;;7.28;1.38;;;3.00;99.90;;;;;;4850444;29;20102;-71
2022/03/26 07:04:35;;;;;;;3.70;1.05;;;3.00;99.90;;;;;;4839710;29;20596;-76
2022/03/26 07:07:03;;;;;;;4.82;1.10;;;3.10;99.90;;;;;;4827760;29;20050;-70
2022/03/26 07:09:30;;;;;;;3.88;1.30;;;3.10;99.90;;;;;;4836466;29;20050;-70
2022/03/26 07:12:01;;;;;;;5.90;1.00;;;3.20;99.90;;;;;;4835063;29;20070;-77
2022/03/26 07:14:30;;;;;;;4.30;0.90;;;3.20;99.90;;;;;;4836665;29;20062;-70
2022/03/26 07:17:38;;;;;;;7.13;1.25;;;3.20;99.90;;;;;;4855978;29;20073;-78
2022/03/26 07:20:18;;;;;;;5.72;1.52;;;3.20;99.90;;;;;;4836716;29;20118;-78
2022/03/26 07:22:46;;;;;;;6.32;1.00;;;3.20;99.90;;;;;;4826320;29;20591;-77
2022/03/26 07:25:14;;;;;;;3.83;1.02;;;3.20;99.90;;;;;;4836173;29;20038;-75
2022/03/26 07:27:44;;;;;;;6.28;1.23;;;3.30;99.90;;;;;;4838202;29;20109;-76
2022/03/26 07:30:13;;;;;;;2.65;1.40;;;3.40;99.90;;;;;;4829321;29;20045;-77
2022/03/26 07:32:40;;;;;;;11.35;1.80;;;3.40;99.90;;;;;;4837203;29;20053;-71
2022/03/26 07:35:43;;;;;;;4.68;1.08;;;3.50;99.90;;;;;;4830746;29;20483;-72
2022/03/26 07:38:10;;;;;;;5.60;1.45;;;3.40;99.90;;;;;;4847178;29;20056;-71
2022/03/26 07:40:38;;;;;;;6.78;1.00;;;3.50;99.90;;;;;;4833041;29;20057;-71
2022/03/26 07:43:08;;;;;;;4.78;0.98;;;3.40;99.90;;;;;;4840577;29;20547;-71
2022/03/26 07:45:37;;;;;;;3.53;0.90;;;3.40;99.90;;;;;;4841220;29;20075;-76
2022/03/26 07:48:06;;;;;;;5.25;1.50;;;3.40;99.90;;;;;;4822235;29;20054;-76
2022/03/26 07:50:34;;;;;;;4.85;0.80;;;3.30;99.90;;;;;;4831812;29;20060;-79
2022/03/26 07:53:02;;;;;;;5.85;1.27;;;3.20;99.90;;;;;;4840711;29;20053;-77
2022/03/26 07:55:30;;;;;;;3.33;1.00;;;3.20;99.90;;;;;;4838883;29;20469;-76
2022/03/26 07:58:00;;;;;;;8.60;1.02;;;3.30;99.90;;;;;;4839575;29;20054;-70
2022/03/26 08:00:29;;;;;;;2.35;0.85;;;3.30;99.90;;;;;;4840431;29;20042;-72
2022/03/26 08:02:57;;;;;;;5.45;1.20;;;3.20;99.90;;;;;;4840009;29;20106;-72
2022/03/26 08:05:24;;;;;;;5.30;1.33;;;3.20;99.90;;;;;;4839863;29;20053;-70
2022/03/26 08:07:52;;;;;;;6.30;0.68;;;3.10;99.90;;;;;;4846375;29;20535;-70
2022/03/26 08:10:19;;;;;;;3.58;1.00;;;3.00;99.90;;;;;;4837225;29;20042;-71
2022/03/26 08:12:47;;;;;;;3.38;1.20;;;3.00;99.90;;;;;;4832022;29;20058;-70
2022/03/26 08:15:15;;;;;;;4.70;0.88;;;3.00;99.90;;;;;;4828482;29;20052;-70
2022/03/26 08:17:46;;;;;;;3.17;0.82;;;3.00;99.90;;;;;;4833957;29;20122;-70
2022/03/26 08:20:14;;;;;;;3.85;1.30;;;3.00;99.90;;;;;;4823522;29;20046;-77
2022/03/26 08:22:42;;;;;;;2.35;1.10;;;3.10;99.90;;;;;;4818647;29;20113;-79
2022/03/26 08:26:19;;;;;;;4.30;1.40;;;3.20;99.90;;;;;;4823767;29;20053;-70
2022/03/26 08:27:59;;;;;;;4.43;2.28;;;3.10;99.90;;;;;;4838004;29;20042;-69
2022/03/26 08:30:27;;;;;;;3.75;0.90;;;3.20;99.90;;;;;;4838175;29;20128;-71
2022/03/26 08:32:56;;;;;;;4.47;1.00;;;3.10;99.90;;;;;;4852801;29;20868;-80
2022/03/26 08:35:24;;;;;;;1.85;0.80;;;3.20;99.90;;;;;;4836974;29;20053;-71
2022/03/26 08:37:52;;;;;;;2.53;1.25;;;3.30;99.90;;;;;;4821187;29;20049;-70
2022/03/26 08:40:19;;;;;;;6.00;1.10;;;3.30;99.90;;;;;;4836319;29;20042;-78
2022/03/26 08:42:47;;;;;;;1.73;0.60;;;3.30;99.90;;;;;;4841418;29;20141;-79
2022/03/26 08:45:15;;;;;;;2.83;1.40;;;3.30;99.90;;;;;;4854922;29;20449;-77
2022/03/26 08:47:42;;;;;;;2.03;0.70;;;3.40;99.90;;;;;;4831341;29;20073;-75
2022/03/26 08:50:12;;;;;;;3.63;0.50;;;3.40;99.90;;;;;;4831851;29;20144;-78
2022/03/26 08:52:39;;;;;;;1.95;1.00;;;3.30;99.90;;;;;;4843996;29;20094;-77
2022/03/26 08:55:08;;;;;;;2.95;0.50;;;3.20;99.90;;;;;;4843099;29;20396;-79
2022/03/26 08:57:36;;;;;;;0.65;0.60;;;3.20;99.90;;;;;;4865218;29;20060;-76
2022/03/26 09:00:06;;;;;;;2.47;0.70;;;3.20;99.90;;;;;;4843918;29;20046;-75
2022/03/26 09:02:35;;;;;;;1.75;0.55;;;3.20;99.90;;;;;;4840617;29;20046;-79
2022/03/26 09:05:04;;;;;;;1.58;0.50;;;3.20;99.90;;;;;;4846925;29;20072;-78
2022/03/26 09:07:33;;;;;;;2.10;0.85;;;3.20;99.90;;;;;;4854384;29;20138;-78
2022/03/26 09:10:01;;;;;;;3.53;0.80;;;3.20;99.90;;;;;;4834773;29;20053;-80
2022/03/26 09:12:28;;;;;;;3.55;1.17;;;3.20;99.90;;;;;;4834289;29;20125;-76
2022/03/26 09:14:56;;;;;;;2.50;1.00;;;3.20;99.90;;;;;;4844121;29;20145;-70
2022/03/26 09:17:23;;;;;;;3.10;0.70;;;3.20;99.90;;;;;;4823118;29;20046;-70
2022/03/26 09:19:51;;;;;;;1.38;0.68;;;3.20;99.90;;;;;;4838795;29;20058;-76
2022/03/26 09:22:19;;;;;;;3.40;1.08;;;3.30;99.90;;;;;;4838369;29;20046;-69
2022/03/26 09:24:48;;;;;;;0.73;0.45;;;3.30;99.90;;;;;;4827639;29;20060;-72
2022/03/26 09:27:17;;;;;;;1.85;0.70;;;3.20;99.90;;;;;;4854543;29;20063;-75
2022/03/26 09:29:45;;;;;;;1.70;0.82;;;3.20;99.90;;;;;;4840145;29;20052;-69
2022/03/26 09:32:13;;;;;;;2.25;0.70;;;3.20;99.90;;;;;;4855993;29;20066;-76
2022/03/26 09:34:40;;;;;;;1.13;0.68;;;3.20;99.90;;;;;;4841320;29;20578;-77
2022/03/26 09:37:09;;;;;;;2.58;1.13;;;3.10;99.90;;;;;;4829686;29;20076;-77
2022/03/26 09:39:36;;;;;;;2.00;0.85;;;3.10;99.90;;;;;;4840168;29;20057;-76
2022/03/26 09:42:08;;;;;;;1.08;0.60;;;3.20;99.90;;;;;;4840795;29;20054;-70
2022/03/26 09:44:41;;;;;;;0.73;0.65;;;3.40;99.90;;;;;;4835332;29;20467;-78
2022/03/26 09:47:10;;;;;;;;;;;3.60;99.90;;;;;;4841823;29;20049;-76
2022/03/26 09:49:41;;;;;;;1.75;1.05;;;3.70;99.90;;;;;;4844492;29;19933;-70
2022/03/26 09:52:08;;;;;;;1.88;1.40;;;3.80;99.90;;;;;;4839673;29;20077;-71
2022/03/26 09:54:40;;;;;;;1.45;0.75;;;3.90;99.90;;;;;;4838673;29;20069;-76
2022/03/26 09:57:13;;;;;;;1.55;0.70;;;4.00;99.90;;;;;;4840967;29;20058;-77
2022/03/26 09:59:40;;;;;;;1.98;0.90;;;4.30;99.90;;;;;;4829205;29;20523;-71
2022/03/26 10:02:37;;;;;;;1.65;0.80;;;4.40;99.90;;;;;;4841649;29;20054;-71
2022/03/26 10:05:12;;;;;;;1.02;0.75;;;4.50;99.90;;;;;;4820157;29;20526;-76
2022/03/26 10:07:41;;;;;;;1.10;1.00;;;4.50;99.90;;;;;;4834365;29;20065;-73
2022/03/26 10:10:21;;;;;;;1.13;0.70;;;4.50;99.90;;;;;;4840434;29;20056;-73
2022/03/26 10:12:52;;;;;;;2.20;1.10;;;4.40;99.90;;;;;;4839404;29;20137;-71
2022/03/26 10:15:20;;;;;;;5.57;2.53;;;4.30;99.90;;;;;;4836012;29;20065;-76
2022/03/26 10:17:49;;;;;;;1.50;1.20;;;4.20;99.90;;;;;;4832829;29;20082;-80
2022/03/26 10:20:16;;;;;;;1.17;0.75;;;4.20;99.90;;;;;;4835699;29;20436;-72
2022/03/26 10:22:46;;;;;;;1.42;0.57;;;4.20;99.90;;;;;;4836043;29;20045;-76
2022/03/26 10:25:16;;;;;;;5.32;0.88;;;4.10;99.90;;;;;;4836262;29;20484;-77
2022/03/26 10:27:47;;;;;;;0.90;0.90;;;4.00;99.90;;;;;;4836213;29;20524;-79
2022/03/26 10:32:38;;;;;;;1.75;1.00;;;3.80;99.90;;;;;;4822324;29;20084;-78
2022/03/26 10:33:18;;;;;;;1.40;1.00;;;3.70;99.90;;;;;;4837234;29;20121;-77
2022/03/26 10:35:54;;;;;;;1.25;1.10;;;3.50;99.90;;;;;;4836628;29;20058;-76
2022/03/26 10:38:29;;;;;;;2.00;1.45;;;3.50;99.90;;;;;;4834279;29;20314;-76
2022/03/26 10:41:00;;;;;;;5.00;1.65;;;3.40;99.90;;;;;;4836633;29;20088;-76
2022/03/26 10:43:29;;;;;;;1.48;1.30;;;3.30;99.90;;;;;;4819494;29;20060;-72
2022/03/26 10:45:59;;;;;;;0.90;0.70;;;3.20;99.90;;;;;;4835675;29;20516;-72
2022/03/26 10:48:28;;;;;;;0.60;0.60;;;3.00;99.90;;;;;;4836914;29;20081;-72
2022/03/26 10:50:57;;;;;;;1.63;0.60;;;2.90;99.90;;;;;;4856309;29;20098;-72
2022/03/26 10:53:35;;;;;;;5.00;0.68;;;3.00;99.90;;;;;;4839949;29;20085;-74
2022/03/26 10:56:04;;;;;;;6.18;0.60;;;3.10;99.90;;;;;;4841003;29;20491;-72
2022/03/26 10:58:32;;;;;;;1.15;0.65;;;3.20;99.90;;;;;;4839878;29;20060;-73
2022/03/26 11:01:02;;;;;;;2.95;0.90;;;3.40;99.90;;;;;;4840206;29;20068;-73
2022/03/26 11:03:30;;;;;;;1.15;0.60;;;3.40;99.90;;;;;;4838301;29;20430;-72
2022/03/26 11:05:58;;;;;;;0.50;0.38;;;3.40;99.90;;;;;;4838815;29;20058;-73
2022/03/26 11:08:33;;;;;;;0.50;0.50;;;3.40;99.90;;;;;;4839625;29;20535;-73
2022/03/26 11:11:07;;;;;;;0.55;0.50;;;3.40;99.90;;;;;;4839369;29;20058;-72
2022/03/26 11:13:39;;;;;;;0.60;0.40;;;3.40;99.90;;;;;;4839346;29;20081;-72
2022/03/26 11:16:17;;;;;;;2.25;0.70;;;3.20;99.90;;;;;;4839936;29;20061;-73
2022/03/26 11:18:59;;;;;;;1.10;0.40;;;3.10;99.90;;;;;;4839771;29;20140;-73
2022/03/26 11:22:16;;;;;;;1.63;0.65;;;3.10;99.90;;;;;;4839911;29;20149;-72
2022/03/26 11:25:34;;;;;;;1.00;0.65;;;2.90;99.90;;;;;;4839978;29;20110;-71
2022/03/26 11:28:41;;;;;;;0.40;0.32;;;2.80;99.90;;;;;;4822684;29;20054;-72
2022/03/26 11:31:19;;;;;;;0.40;0.40;;;2.70;99.90;;;;;;4838305;29;20050;-72
2022/03/26 11:33:50;;;;;;;1.27;0.65;;;2.60;99.90;;;;;;4853399;29;20114;-73
2022/03/26 11:36:44;;;;;;;0.47;0.47;;;2.60;99.90;;;;;;4834196;29;20405;-71
2022/03/26 11:39:29;;;;;;;0.85;0.40;;;2.60;99.90;;;;;;4835196;29;20145;-73
2022/03/26 11:42:16;;;;;;;1.13;0.63;;;2.40;99.90;;;;;;4835358;29;20051;-73
2022/03/26 11:50:41;;;;;;;2.22;0.60;;;2.30;99.90;;;;;;4820327;29;20046;-72
2022/03/26 11:50:46;;;;;;;4.97;0.50;;;2.30;99.90;;;;;;4830065;29;20061;-72
2022/03/26 11:53:34;;;;;;;0.65;0.40;;;2.20;99.90;;;;;;4838762;29;20058;-72
2022/03/26 11:56:08;;;;;;;0.82;0.68;;;2.20;99.90;;;;;;4838392;29;20102;-71
2022/03/26 11:58:40;;;;;;;0.68;0.68;;;2.10;99.90;;;;;;4853349;29;20447;-72
2022/03/26 12:01:09;;;;;;;0.52;0.52;;;2.00;99.90;;;;;;4834123;29;20084;-72
2022/03/26 12:03:46;;;;;;;0.40;0.40;;;2.00;99.90;;;;;;4832240;29;20664;-72
2022/03/26 12:06:39;;;;;;;1.25;0.80;;;1.90;99.90;;;;;;4839956;29;20058;-71
2022/03/26 12:10:10;;;;;;;1.23;0.70;;;1.90;99.90;;;;;;4838276;29;20069;-79
2022/03/26 12:13:00;;;;;;;1.17;0.90;;;1.80;99.90;;;;;;4839667;29;20057;-77
2022/03/26 12:15:39;;;;;;;1.65;1.35;;;1.80;99.90;;;;;;4840439;29;20062;-78
2022/03/26 12:18:16;;;;;;;1.42;0.95;;;1.80;99.90;;;;;;4843221;29;20056;-78
2022/03/26 12:20:47;;;;;;;2.67;1.05;;;1.90;99.90;;;;;;4842187;29;20061;-76
2022/03/26 12:23:16;;;;;;;1.40;0.90;;;2.00;99.90;;;;;;4825840;29;20432;-78
2022/03/26 12:25:49;;;;;;;1.60;1.00;;;1.90;99.90;;;;;;4841850;29;20107;-77
2022/03/26 12:28:19;;;;;;;1.65;0.88;;;1.90;99.90;;;;;;4842366;29;20062;-77
2022/03/26 12:30:49;;;;;;;7.10;1.15;;;1.80;99.90;;;;;;4857327;29;20149;-76
2022/03/26 12:33:18;;;;;;;2.17;0.88;;;1.70;99.90;;;;;;4842375;29;20065;-79
2022/03/26 12:35:49;;;;;;;1.38;1.15;;;1.70;99.90;;;;;;4835896;29;20505;-76
2022/03/26 12:38:18;;;;;;;0.80;0.80;;;1.80;99.90;;;;;;4836043;29;20045;-77
2022/03/26 12:40:55;;;;;;;4.45;1.27;;;1.70;99.90;;;;;;4840944;29;20607;-77
2022/03/26 12:43:25;;;;;;;1.55;0.80;;;1.80;99.90;;;;;;4841998;29;20054;-77
2022/03/26 12:45:54;;;;;;;2.88;1.52;;;1.80;99.90;;;;;;4840847;29;20058;-77
2022/03/26 12:48:23;;;;;;;3.47;1.17;;;1.90;99.90;;;;;;4840750;29;20411;-77
2022/03/26 12:50:52;;;;;;;1.38;1.00;;;1.90;99.90;;;;;;4840390;29;20454;-77
2022/03/26 12:53:20;;;;;;;1.67;0.82;;;1.90;99.90;;;;;;4842076;29;20050;-79
2022/03/26 12:55:56;;;;;;;5.75;1.15;;;1.90;99.90;;;;;;4838690;29;20043;-76
2022/03/26 13:01:13;;;;;;;2.50;1.23;;;1.80;99.90;;;;;;4837963;29;20054;-78
2022/03/26 13:03:41;;;;;;;1.08;1.00;;;1.70;99.90;;;;;;4840015;29;20156;-79
2022/03/26 13:06:13;;;;;;;0.88;0.70;;;1.70;99.90;;;;;;4838910;29;20678;-78
2022/03/26 13:08:42;;;;;;;6.07;0.90;;;1.70;99.90;;;;;;4840500;29;20054;-78
2022/03/26 13:11:12;;;;;;;1.60;0.47;;;1.70;99.90;;;;;;4839932;29;20053;-78
2022/03/26 13:13:44;;;;;;;6.03;0.80;;;1.60;99.90;;;;;;4840000;29;20176;-77
2022/03/26 13:16:14;;;;;;;1.33;0.93;;;1.50;99.90;;;;;;4839249;29;20062;-77
2022/03/26 13:18:44;;;;;;;6.22;0.65;;;1.50;99.90;;;;;;4827597;29;20066;-76
2022/03/26 13:21:15;;;;;;;1.67;0.65;;;1.50;99.90;;;;;;4837812;29;20063;-77